Time;durP1;ratioP1;P1;durP2;ratioP2;P2;SDS_P1;SDS_P2;PMS_P1;PMS_P2;Temp;Humidity;BMP_temperature;BMP_pressure;BME280_temperature;BME280_humidity;BME280_pressure;Samples;Min_cycle;Max_cycle;Signal;HPM_P1;HPM_P2
2023/05/07 00:02:21;;;;;;;3.93;3.63;;;22.60;50.10;;;;;;5060652;28;20193;-51
2023/05/07 00:04:46;;;;;;;3.50;3.30;;;22.60;50.40;;;;;;5060040;28;20247;-50
2023/05/07 00:07:12;;;;;;;4.30;3.90;;;22.50;50.50;;;;;;5070401;28;20236;-50
2023/05/07 00:09:37;;;;;;;5.80;3.77;;;22.40;50.70;;;;;;5066668;28;20185;-52
2023/05/07 00:12:03;;;;;;;3.73;3.43;;;22.30;50.90;;;;;;5066125;28;20527;-50
2023/05/07 00:14:29;;;;;;;4.03;3.60;;;22.20;51.00;;;;;;5058842;28;20246;-49
2023/05/07 00:16:55;;;;;;;4.20;3.87;;;22.20;51.30;;;;;;5062452;28;20676;-50
2023/05/07 00:19:20;;;;;;;3.97;3.67;;;22.20;51.60;;;;;;5065572;28;20196;-50
2023/05/07 00:21:46;;;;;;;3.60;3.30;;;22.20;51.50;;;;;;5064645;28;20434;-50
2023/05/07 00:24:12;;;;;;;6.67;3.57;;;22.20;51.50;;;;;;5064696;28;20246;-50
2023/05/07 00:26:37;;;;;;;3.70;3.40;;;22.20;52.00;;;;;;5070866;28;20253;-52
2023/05/07 00:29:03;;;;;;;3.53;3.20;;;22.20;51.70;;;;;;5071668;28;20317;-52
2023/05/07 00:31:28;;;;;;;5.13;3.20;;;22.10;51.90;;;;;;5064474;28;20204;-51
2023/05/07 00:33:54;;;;;;;7.33;3.43;;;22.10;51.90;;;;;;5061994;28;20207;-50
2023/05/07 00:36:19;;;;;;;3.80;3.40;;;22.10;51.80;;;;;;5068491;28;20195;-50
2023/05/07 00:38:45;;;;;;;4.43;3.63;;;22.00;51.70;;;;;;5057693;28;20195;-51
2023/05/07 00:41:11;;;;;;;3.97;3.67;;;21.90;51.90;;;;;;5063149;28;20281;-52
2023/05/07 00:43:36;;;;;;;5.43;3.57;;;21.80;52.10;;;;;;5063354;28;20196;-50
2023/05/07 00:46:02;;;;;;;4.00;3.40;;;21.80;52.20;;;;;;5066937;28;20200;-51
2023/05/07 00:48:27;;;;;;;3.10;2.90;;;21.60;52.60;;;;;;5057813;28;20197;-51
2023/05/07 00:50:53;;;;;;;4.87;2.77;;;21.70;52.70;;;;;;5064126;28;20191;-50
2023/05/07 00:53:20;;;;;;;4.20;2.87;;;21.80;52.40;;;;;;5065331;28;21074;-50
2023/05/07 00:55:46;;;;;;;3.60;3.30;;;21.80;52.10;;;;;;5063816;28;20235;-50
2023/05/07 00:58:11;;;;;;;3.30;3.00;;;21.90;52.20;;;;;;5066846;28;20433;-52
2023/05/07 01:00:37;;;;;;;3.87;3.47;;;21.80;52.00;;;;;;5061107;28;20219;-50
2023/05/07 01:03:03;;;;;;;4.00;3.50;;;21.90;52.00;;;;;;5068862;28;20556;-51
2023/05/07 01:05:30;;;;;;;3.50;3.20;;;21.90;51.70;;;;;;5066665;28;20218;-51
2023/05/07 01:07:56;;;;;;;3.73;3.40;;;22.00;51.90;;;;;;5067598;28;20222;-50
2023/05/07 01:10:23;;;;;;;5.60;3.90;;;22.00;51.70;;;;;;5066675;28;20962;-50
2023/05/07 01:12:50;;;;;;;5.20;3.10;;;22.10;51.70;;;;;;5063154;28;20442;-54
2023/05/07 01:15:16;;;;;;;4.00;3.13;;;22.10;51.50;;;;;;5069864;28;20932;-51
2023/05/07 01:17:42;;;;;;;8.50;3.50;;;22.10;51.60;;;;;;5066952;28;20458;-52
2023/05/07 01:20:10;;;;;;;3.40;3.10;;;22.10;51.70;;;;;;5061887;28;20446;-50
2023/05/07 01:22:37;;;;;;;4.70;3.67;;;22.10;51.60;;;;;;5057631;28;20447;-53
2023/05/07 01:25:04;;;;;;;3.67;3.20;;;22.00;51.70;;;;;;5062950;28;20949;-51
2023/05/07 01:27:29;;;;;;;4.70;4.17;;;22.10;51.60;;;;;;5064235;28;21668;-50
2023/05/07 01:29:55;;;;;;;3.73;3.43;;;22.10;51.60;;;;;;5059657;28;20450;-50
2023/05/07 01:32:39;;;;;;;4.60;3.57;;;22.10;51.60;;;;;;5062695;28;20249;-52
2023/05/07 01:35:07;;;;;;;4.20;3.47;;;22.10;51.60;;;;;;5056544;28;20678;-53
2023/05/07 01:37:33;;;;;;;3.33;3.03;;;22.00;51.50;;;;;;5065253;28;20442;-51
2023/05/07 01:40:00;;;;;;;4.77;3.27;;;21.90;51.50;;;;;;5063935;28;20457;-51
2023/05/07 01:42:26;;;;;;;4.07;3.23;;;21.90;51.60;;;;;;5063531;28;20438;-54
2023/05/07 01:44:51;;;;;;;4.23;3.50;;;21.80;51.70;;;;;;5054619;28;21065;-51
2023/05/07 01:47:17;;;;;;;4.03;3.53;;;21.80;52.00;;;;;;5064725;28;20243;-51
2023/05/07 01:49:43;;;;;;;3.40;2.93;;;21.70;52.00;;;;;;5055137;28;20192;-50
2023/05/07 01:52:11;;;;;;;3.37;3.07;;;21.70;52.20;;;;;;5062547;28;20670;-51
2023/05/07 01:54:37;;;;;;;4.63;3.20;;;21.70;52.10;;;;;;5060745;28;20246;-51
2023/05/07 01:57:02;;;;;;;3.43;3.10;;;21.60;52.10;;;;;;5055852;28;20442;-49
2023/05/07 01:59:28;;;;;;;4.00;3.47;;;21.60;52.20;;;;;;5061207;28;20288;-51
2023/05/07 02:01:54;;;;;;;3.43;3.20;;;21.50;52.60;;;;;;5060264;28;20529;-50
2023/05/07 02:04:19;;;;;;;3.17;2.97;;;21.30;53.00;;;;;;5066178;28;20198;-50
2023/05/07 02:06:45;;;;;;;11.00;3.43;;;21.30;52.90;;;;;;5066409;28;20207;-50
2023/05/07 02:09:11;;;;;;;4.17;3.67;;;21.30;52.80;;;;;;5066012;28;20230;-50
2023/05/07 02:11:36;;;;;;;3.00;2.80;;;21.40;52.60;;;;;;5066797;28;20659;-50
2023/05/07 02:14:02;;;;;;;3.10;2.80;;;21.40;52.40;;;;;;5059071;28;20223;-53
2023/05/07 02:16:27;;;;;;;4.37;3.40;;;21.40;52.30;;;;;;5063274;28;20206;-49
2023/05/07 02:18:53;;;;;;;3.60;3.10;;;21.50;52.20;;;;;;5059200;28;20778;-49
2023/05/07 02:21:18;;;;;;;3.33;2.93;;;21.60;52.30;;;;;;5065137;28;20195;-52
2023/05/07 02:23:44;;;;;;;3.40;3.10;;;21.70;52.00;;;;;;5061605;28;20246;-50
2023/05/07 02:26:11;;;;;;;3.57;3.20;;;21.70;52.10;;;;;;5063041;28;20216;-50
2023/05/07 02:28:36;;;;;;;4.10;3.70;;;21.70;52.00;;;;;;5062720;28;20192;-50
2023/05/07 02:31:05;;;;;;;5.40;3.60;;;21.80;51.80;;;;;;5059785;28;20453;-50
2023/05/07 02:33:30;;;;;;;3.70;3.30;;;21.70;51.70;;;;;;5066876;28;20192;-50
2023/05/07 02:35:56;;;;;;;5.03;3.00;;;21.80;51.80;;;;;;5067651;28;20508;-51
2023/05/07 02:38:22;;;;;;;3.27;3.00;;;21.70;51.70;;;;;;5063287;28;20192;-50
2023/05/07 02:40:48;;;;;;;5.03;3.37;;;21.70;51.80;;;;;;5060494;28;20196;-51
2023/05/07 02:43:13;;;;;;;5.57;3.23;;;21.80;51.90;;;;;;5061933;28;20978;-50
2023/05/07 02:45:39;;;;;;;4.70;3.33;;;21.80;51.60;;;;;;5062508;28;20199;-50
2023/05/07 02:48:06;;;;;;;4.90;3.80;;;21.80;51.40;;;;;;5067093;28;20200;-50
2023/05/07 02:50:32;;;;;;;3.10;2.90;;;21.80;51.60;;;;;;5062522;28;20272;-54
2023/05/07 02:52:58;;;;;;;3.37;3.17;;;21.80;51.60;;;;;;5061239;28;20446;-52
2023/05/07 02:55:23;;;;;;;3.73;3.43;;;21.80;51.40;;;;;;5065095;28;20474;-50
2023/05/07 02:57:49;;;;;;;4.27;3.20;;;21.70;51.20;;;;;;5065051;28;20675;-49
2023/05/07 03:00:18;;;;;;;3.90;3.60;;;21.70;51.40;;;;;;5062897;28;20658;-50
2023/05/07 03:02:44;;;;;;;4.37;3.03;;;21.60;51.50;;;;;;5069347;28;20279;-50
2023/05/07 03:05:10;;;;;;;7.03;3.90;;;21.50;51.50;;;;;;5071323;28;20631;-49
2023/05/07 03:07:36;;;;;;;3.83;3.53;;;21.40;51.60;;;;;;5061663;28;20534;-50
2023/05/07 03:10:02;;;;;;;3.30;3.00;;;21.30;51.60;;;;;;5074910;28;20192;-51
2023/05/07 03:12:28;;;;;;;3.37;3.17;;;21.20;51.80;;;;;;5074202;28;20196;-51
2023/05/07 03:14:53;;;;;;;3.77;3.40;;;21.10;51.80;;;;;;5067351;28;20485;-50
2023/05/07 03:17:20;;;;;;;4.00;3.47;;;21.10;52.20;;;;;;5063922;28;20196;-52
2023/05/07 03:19:45;;;;;;;3.67;3.40;;;21.00;52.30;;;;;;5071827;28;20538;-53
2023/05/07 03:22:11;;;;;;;3.53;3.33;;;21.00;52.50;;;;;;5066254;28;20441;-49
2023/05/07 03:24:36;;;;;;;3.00;2.80;;;21.00;52.60;;;;;;5071519;28;20302;-49
2023/05/07 03:27:02;;;;;;;4.73;3.90;;;21.00;52.60;;;;;;5073498;28;20604;-50
2023/05/07 03:29:28;;;;;;;3.40;3.10;;;20.90;52.80;;;;;;5072449;28;20198;-51
2023/05/07 03:31:54;;;;;;;5.10;3.60;;;20.80;52.60;;;;;;5063442;28;20673;-49
2023/05/07 03:34:21;;;;;;;5.20;3.83;;;20.80;52.60;;;;;;5069058;28;20489;-52
2023/05/07 03:36:48;;;;;;;3.33;3.13;;;20.70;52.60;;;;;;5071511;28;20196;-49
2023/05/07 03:39:14;;;;;;;7.93;3.60;;;20.60;52.80;;;;;;5069447;28;20457;-50
2023/05/07 03:41:40;;;;;;;3.83;3.10;;;20.50;52.90;;;;;;5069655;28;20941;-50
2023/05/07 03:44:05;;;;;;;3.90;3.50;;;20.50;53.00;;;;;;5071597;28;20184;-51
2023/05/07 03:46:32;;;;;;;5.80;3.93;;;20.50;53.20;;;;;;5072825;28;20198;-51
2023/05/07 03:48:58;;;;;;;5.83;3.23;;;20.40;54.10;;;;;;5071153;28;20199;-49
2023/05/07 03:51:24;;;;;;;3.60;3.30;;;20.30;54.00;;;;;;5072299;28;20510;-52
2023/05/07 03:53:52;;;;;;;3.73;3.43;;;20.40;53.90;;;;;;5070005;28;20259;-53
2023/05/07 03:56:18;;;;;;;7.03;3.23;;;20.50;53.40;;;;;;5069574;28;20803;-52
2023/05/07 03:58:44;;;;;;;3.30;3.00;;;20.70;53.40;;;;;;5071377;28;20495;-49
2023/05/07 04:01:09;;;;;;;8.77;3.93;;;20.80;53.00;;;;;;5063695;28;20794;-50
2023/05/07 04:03:35;;;;;;;3.70;2.90;;;20.80;52.90;;;;;;5058873;28;20199;-50
2023/05/07 04:06:01;;;;;;;3.27;3.07;;;20.80;53.00;;;;;;5066095;28;20192;-49
2023/05/07 04:08:26;;;;;;;3.40;3.00;;;20.70;52.70;;;;;;5068110;28;20202;-50
2023/05/07 04:10:56;;;;;;;3.33;3.13;;;20.80;53.00;;;;;;5061386;28;20230;-51
2023/05/07 04:13:21;;;;;;;3.20;2.90;;;20.80;52.60;;;;;;5070341;28;20537;-50
2023/05/07 04:15:48;;;;;;;3.53;3.23;;;20.80;52.60;;;;;;5071259;28;20551;-54
2023/05/07 04:18:14;;;;;;;3.57;3.27;;;20.80;52.70;;;;;;5066668;28;20196;-50
2023/05/07 04:20:40;;;;;;;3.40;3.13;;;20.80;53.10;;;;;;5068076;28;20445;-51
2023/05/07 04:23:06;;;;;;;8.03;3.03;;;20.80;52.50;;;;;;5068641;28;20466;-53
2023/05/07 04:25:32;;;;;;;3.50;3.20;;;20.90;52.50;;;;;;5069979;28;20224;-54
2023/05/07 04:27:58;;;;;;;4.23;2.80;;;21.00;52.30;;;;;;5066261;28;20513;-50
2023/05/07 04:30:24;;;;;;;3.40;3.20;;;20.90;52.00;;;;;;5071841;28;20925;-53
2023/05/07 04:32:50;;;;;;;5.43;3.67;;;20.90;52.00;;;;;;5067785;28;20270;-51
2023/05/07 04:35:15;;;;;;;3.80;3.33;;;20.90;52.00;;;;;;5070706;28;20238;-50
2023/05/07 04:37:41;;;;;;;4.90;3.67;;;20.90;52.50;;;;;;5051404;28;20196;-52
2023/05/07 04:40:07;;;;;;;3.30;3.00;;;20.80;52.60;;;;;;5068471;28;20299;-53
2023/05/07 04:42:33;;;;;;;3.50;2.90;;;20.90;52.50;;;;;;5065427;28;20596;-54
2023/05/07 04:44:58;;;;;;;4.37;3.20;;;20.90;52.70;;;;;;5064315;28;20442;-52
2023/05/07 04:47:24;;;;;;;9.53;2.80;;;20.90;52.40;;;;;;5057844;28;20301;-51
2023/05/07 04:49:49;;;;;;;7.97;3.50;;;20.90;52.40;;;;;;5067754;28;20605;-54
2023/05/07 04:52:16;;;;;;;3.90;3.00;;;20.90;52.20;;;;;;5065600;28;20264;-51
2023/05/07 04:54:42;;;;;;;6.03;3.03;;;20.50;53.30;;;;;;5064106;28;20255;-54
2023/05/07 04:57:07;;;;;;;2.80;2.57;;;20.60;53.60;;;;;;5063414;28;20486;-52
2023/05/07 04:59:33;;;;;;;3.00;2.70;;;20.70;53.50;;;;;;5056193;28;20260;-52
2023/05/07 05:01:59;;;;;;;4.67;3.07;;;20.70;53.40;;;;;;5061767;28;20584;-53
2023/05/07 05:04:25;;;;;;;4.40;3.50;;;20.80;53.20;;;;;;5066532;28;20453;-54
2023/05/07 05:06:51;;;;;;;6.50;2.80;;;20.80;52.80;;;;;;5058545;28;20247;-53
2023/05/07 05:09:17;;;;;;;6.07;2.93;;;20.90;53.10;;;;;;5061131;28;20927;-54
2023/05/07 05:11:43;;;;;;;4.40;3.20;;;20.80;53.00;;;;;;5064239;28;20598;-53
2023/05/07 05:14:09;;;;;;;3.27;3.07;;;20.90;53.00;;;;;;5058356;28;20485;-53
2023/05/07 05:16:34;;;;;;;3.03;2.83;;;21.00;52.80;;;;;;5046101;28;20200;-51
2023/05/07 05:19:02;;;;;;;3.60;2.90;;;20.90;52.80;;;;;;5055464;28;20439;-50
2023/05/07 05:21:27;;;;;;;4.20;3.20;;;20.90;53.00;;;;;;5060131;28;20206;-54
2023/05/07 05:23:53;;;;;;;7.53;4.83;;;20.90;52.70;;;;;;5060439;28;22059;-55
2023/05/07 05:26:21;;;;;;;5.07;3.57;;;21.00;52.60;;;;;;5062061;28;20285;-50
2023/05/07 05:28:46;;;;;;;4.57;4.20;;;21.10;52.70;;;;;;5058148;28;20579;-54
2023/05/07 05:31:12;;;;;;;4.13;3.20;;;21.20;52.30;;;;;;5065440;28;20450;-50
2023/05/07 05:33:37;;;;;;;9.80;3.57;;;21.20;52.20;;;;;;5062149;28;20616;-53
2023/05/07 05:36:03;;;;;;;3.90;3.53;;;21.30;52.60;;;;;;5063230;28;20239;-54
2023/05/07 05:38:29;;;;;;;4.20;3.30;;;21.30;52.40;;;;;;5059115;28;20204;-52
2023/05/07 05:40:55;;;;;;;3.40;3.20;;;21.40;51.90;;;;;;5066905;28;20496;-53
2023/05/07 05:43:20;;;;;;;3.57;3.30;;;21.00;52.80;;;;;;5060330;28;20438;-50
2023/05/07 05:45:46;;;;;;;4.40;2.90;;;21.00;52.90;;;;;;5062216;28;20220;-50
2023/05/07 05:48:12;;;;;;;2.77;2.57;;;21.20;52.50;;;;;;5062218;28;20704;-52
2023/05/07 05:50:37;;;;;;;3.10;2.90;;;21.30;52.10;;;;;;5062543;28;20206;-53
2023/05/07 05:53:03;;;;;;;4.00;3.20;;;21.40;51.90;;;;;;5062919;28;20563;-50
2023/05/07 05:55:29;;;;;;;2.70;2.50;;;21.50;51.90;;;;;;5056719;28;20289;-54
2023/05/07 05:57:54;;;;;;;3.30;3.00;;;21.50;52.00;;;;;;5059491;28;20202;-51
2023/05/07 06:00:22;;;;;;;5.20;2.53;;;21.50;51.80;;;;;;5064580;28;20304;-54
2023/05/07 06:02:48;;;;;;;3.20;2.90;;;21.60;51.70;;;;;;5058824;28;20199;-51
2023/05/07 06:05:14;;;;;;;4.53;3.10;;;21.70;51.70;;;;;;5062392;28;20442;-50
2023/05/07 06:07:39;;;;;;;2.67;2.47;;;21.70;51.40;;;;;;5058078;28;20238;-50
2023/05/07 06:10:05;;;;;;;2.50;2.30;;;21.80;51.30;;;;;;5060678;28;20269;-51
2023/05/07 06:12:31;;;;;;;4.33;3.00;;;21.80;51.20;;;;;;5060010;28;20694;-53
2023/05/07 06:14:57;;;;;;;4.43;2.77;;;21.40;51.40;;;;;;5066795;28;20496;-50
2023/05/07 06:17:22;;;;;;;3.27;2.53;;;21.50;51.80;;;;;;5064003;28;20202;-53
2023/05/07 06:19:48;;;;;;;3.67;3.37;;;21.20;52.30;;;;;;5056980;28;20193;-52
2023/05/07 06:22:14;;;;;;;3.30;2.63;;;21.20;52.30;;;;;;5052059;28;20645;-51
2023/05/07 06:24:39;;;;;;;2.50;2.40;;;21.30;52.20;;;;;;5066076;28;20196;-54
2023/05/07 06:27:05;;;;;;;2.80;2.60;;;21.10;52.40;;;;;;5069296;28;20233;-54
2023/05/07 06:29:32;;;;;;;3.50;2.40;;;21.40;52.60;;;;;;5065939;28;20543;-53
2023/05/07 06:32:10;;;;;;;2.57;2.27;;;21.10;51.50;;;;;;5059473;28;20187;-54
2023/05/07 06:34:36;;;;;;;3.10;2.80;;;21.30;51.70;;;;;;5067448;28;20905;-53
2023/05/07 06:37:02;;;;;;;2.80;2.60;;;21.20;51.50;;;;;;5067756;28;20465;-53
2023/05/07 06:39:27;;;;;;;4.17;3.77;;;21.40;52.00;;;;;;5060257;28;20223;-54
2023/05/07 06:41:53;;;;;;;2.50;2.30;;;21.40;51.80;;;;;;5068372;28;20249;-51
2023/05/07 06:44:18;;;;;;;2.30;2.00;;;21.30;51.90;;;;;;5069581;28;20207;-54
2023/05/07 06:46:44;;;;;;;3.03;2.33;;;21.30;52.10;;;;;;5068711;28;20654;-54
2023/05/07 06:49:12;;;;;;;2.33;2.13;;;21.20;52.50;;;;;;5074113;28;20218;-54
2023/05/07 06:51:38;;;;;;;2.93;2.47;;;21.40;52.40;;;;;;5062355;28;20455;-54
2023/05/07 06:54:04;;;;;;;3.40;2.20;;;21.70;52.40;;;;;;5070172;28;21113;-54
2023/05/07 06:56:30;;;;;;;2.63;2.33;;;21.90;51.70;;;;;;5071270;28;20196;-54
2023/05/07 06:58:56;;;;;;;3.93;2.60;;;22.10;51.30;;;;;;5071236;28;20635;-53
2023/05/07 07:01:21;;;;;;;2.83;2.13;;;22.10;51.10;;;;;;5066891;28;20434;-55
2023/05/07 07:03:47;;;;;;;2.57;2.37;;;22.00;51.60;;;;;;5066265;28;20288;-53
2023/05/07 07:06:13;;;;;;;2.90;2.60;;;22.30;51.60;;;;;;5054095;28;20235;-55
2023/05/07 07:08:38;;;;;;;2.33;2.20;;;22.40;50.80;;;;;;5072036;28;20196;-54
2023/05/07 07:11:04;;;;;;;3.53;2.53;;;22.30;50.90;;;;;;5063625;28;20201;-54
2023/05/07 07:13:30;;;;;;;3.00;2.47;;;22.40;50.80;;;;;;5066504;28;20199;-55
2023/05/07 07:15:56;;;;;;;2.63;2.43;;;22.70;50.60;;;;;;5067028;28;20496;-55
2023/05/07 07:18:22;;;;;;;5.30;2.30;;;22.80;50.40;;;;;;5067478;28;20573;-54
2023/05/07 07:20:47;;;;;;;2.50;2.30;;;23.10;50.00;;;;;;5057839;28;20214;-54
2023/05/07 07:23:13;;;;;;;2.13;2.03;;;23.50;50.10;;;;;;5064869;28;20270;-55
2023/05/07 07:25:39;;;;;;;2.30;2.20;;;23.80;49.50;;;;;;5062911;28;20188;-53
2023/05/07 07:28:05;;;;;;;2.20;2.00;;;24.20;48.70;;;;;;5068504;28;20461;-55
2023/05/07 07:30:31;;;;;;;2.43;2.30;;;24.20;47.20;;;;;;5069437;28;20196;-55
2023/05/07 07:33:02;;;;;;;3.40;2.40;;;24.20;47.30;;;;;;5078784;28;20922;-55
2023/05/07 07:35:28;;;;;;;3.63;2.40;;;24.20;47.20;;;;;;5072922;28;20254;-55
2023/05/07 07:37:53;;;;;;;2.40;2.20;;;24.30;46.70;;;;;;5071224;28;20468;-55
2023/05/07 07:40:19;;;;;;;2.83;2.63;;;24.40;46.60;;;;;;5071366;28;20845;-55
2023/05/07 07:42:45;;;;;;;2.77;2.57;;;24.50;46.60;;;;;;5072810;28;20225;-55
2023/05/07 07:45:10;;;;;;;3.00;2.70;;;24.30;46.60;;;;;;5054826;28;20199;-54
2023/05/07 07:47:36;;;;;;;2.83;2.63;;;24.40;46.70;;;;;;5072754;28;20222;-52
2023/05/07 07:50:01;;;;;;;2.53;2.33;;;24.40;46.90;;;;;;5064049;28;20262;-55
2023/05/07 07:52:27;;;;;;;2.77;2.57;;;24.50;46.70;;;;;;5072172;28;20215;-52
2023/05/07 07:54:52;;;;;;;2.70;2.50;;;24.80;46.40;;;;;;5072312;28;20785;-53
2023/05/07 07:57:18;;;;;;;2.10;2.00;;;25.00;46.40;;;;;;5065778;28;20191;-54
2023/05/07 07:59:44;;;;;;;2.63;2.37;;;25.10;45.90;;;;;;5070554;28;20204;-55
2023/05/07 08:02:09;;;;;;;2.53;2.33;;;25.30;46.10;;;;;;5063101;28;20187;-53
2023/05/07 08:04:36;;;;;;;2.30;2.10;;;25.60;45.70;;;;;;5072629;28;20196;-53
2023/05/07 08:07:02;;;;;;;2.47;2.23;;;25.70;45.50;;;;;;5072407;28;20261;-53
2023/05/07 08:09:28;;;;;;;3.77;2.20;;;25.90;45.10;;;;;;5070376;28;20495;-54
2023/05/07 08:11:53;;;;;;;2.73;2.53;;;26.10;44.70;;;;;;5067539;28;20207;-52
2023/05/07 08:14:19;;;;;;;2.67;2.50;;;26.40;44.20;;;;;;5068803;28;20223;-53
2023/05/07 08:16:45;;;;;;;2.23;2.10;;;26.50;44.50;;;;;;5066708;28;20192;-55
2023/05/07 08:19:10;;;;;;;2.70;2.50;;;26.70;44.70;;;;;;5070741;28;20218;-56
2023/05/07 08:21:39;;;;;;;2.47;2.33;;;26.70;43.80;;;;;;5067125;28;20188;-54
2023/05/07 08:24:05;;;;;;;2.43;2.23;;;26.80;43.70;;;;;;5058043;28;20238;-55
2023/05/07 08:26:31;;;;;;;2.50;2.30;;;26.90;43.20;;;;;;5066995;28;20520;-51
2023/05/07 08:28:56;;;;;;;2.50;2.30;;;27.10;43.30;;;;;;5053957;28;20204;-53
2023/05/07 08:31:22;;;;;;;2.80;2.60;;;27.00;43.70;;;;;;5059647;28;20200;-56
2023/05/07 08:33:47;;;;;;;3.60;2.30;;;27.20;44.00;;;;;;5071775;28;20195;-57
2023/05/07 08:36:13;;;;;;;2.70;2.10;;;27.50;44.30;;;;;;5071834;28;20224;-53
2023/05/07 08:38:40;;;;;;;4.20;2.13;;;27.40;42.60;;;;;;5069776;28;20192;-53
2023/05/07 08:41:07;;;;;;;2.50;2.30;;;27.50;43.00;;;;;;5071708;28;20199;-54
2023/05/07 08:43:35;;;;;;;2.53;2.33;;;27.60;42.50;;;;;;5071630;28;20954;-53
2023/05/07 08:46:02;;;;;;;2.47;2.27;;;27.70;42.70;;;;;;5071614;28;20500;-53
2023/05/07 08:48:30;;;;;;;3.57;2.40;;;27.90;43.00;;;;;;5060300;28;20457;-54
2023/05/07 08:50:58;;;;;;;2.60;2.20;;;27.80;42.30;;;;;;5071133;28;20456;-54
2023/05/07 08:53:24;;;;;;;2.57;2.30;;;27.60;43.00;;;;;;5071370;28;20422;-53
2023/05/07 08:55:50;;;;;;;2.13;2.00;;;27.80;42.60;;;;;;5051935;28;20489;-54
2023/05/07 08:58:16;;;;;;;2.43;2.17;;;27.80;42.00;;;;;;5070482;28;20588;-56
2023/05/07 09:00:42;;;;;;;2.80;2.60;;;27.60;42.20;;;;;;5070879;28;20437;-52
2023/05/07 09:03:07;;;;;;;5.23;2.33;;;27.70;42.20;;;;;;5064824;28;20196;-54
2023/05/07 09:05:33;;;;;;;2.67;2.47;;;28.00;42.20;;;;;;5069991;28;20273;-54
2023/05/07 09:08:01;;;;;;;2.50;2.13;;;28.00;42.50;;;;;;5064213;28;20218;-54
2023/05/07 09:10:27;;;;;;;2.60;2.40;;;28.20;41.80;;;;;;5069705;28;20305;-55
2023/05/07 09:12:52;;;;;;;2.90;2.30;;;28.50;41.20;;;;;;5065704;28;20445;-54
2023/05/07 09:15:18;;;;;;;2.90;2.70;;;28.80;40.70;;;;;;5071092;28;20219;-54
2023/05/07 09:17:44;;;;;;;2.33;2.13;;;29.10;40.50;;;;;;5070189;28;20192;-55
2023/05/07 09:20:10;;;;;;;4.10;2.67;;;29.20;40.20;;;;;;5052497;28;20840;-54
2023/05/07 09:22:38;;;;;;;2.23;2.13;;;29.20;39.30;;;;;;5066003;28;20610;-56
2023/05/07 09:25:07;;;;;;;2.87;2.60;;;29.20;40.40;;;;;;5070280;28;20565;-55
2023/05/07 09:27:32;;;;;;;7.00;2.70;;;29.50;39.80;;;;;;5067402;28;20873;-57
2023/05/07 09:29:58;;;;;;;2.47;2.27;;;29.80;39.50;;;;;;5065491;28;20473;-57
2023/05/07 09:32:27;;;;;;;2.83;2.63;;;29.80;38.70;;;;;;5063711;28;20200;-55
2023/05/07 09:34:52;;;;;;;2.53;2.40;;;30.10;38.50;;;;;;5063242;28;20231;-57
2023/05/07 09:37:18;;;;;;;3.00;2.80;;;30.40;38.40;;;;;;5065999;28;20459;-56
2023/05/07 09:39:46;;;;;;;3.23;2.93;;;30.80;37.90;;;;;;5067831;28;20649;-57
2023/05/07 09:42:12;;;;;;;4.57;2.90;;;30.90;36.60;;;;;;5069751;28;20601;-57
2023/05/07 09:44:38;;;;;;;3.10;2.80;;;31.00;37.20;;;;;;5065736;28;20512;-56
2023/05/07 09:47:08;;;;;;;2.80;2.60;;;31.10;36.70;;;;;;5069487;28;20442;-56
2023/05/07 09:49:36;;;;;;;3.30;3.00;;;30.40;37.20;;;;;;5073425;28;20494;-57
2023/05/07 09:52:05;;;;;;;2.90;2.50;;;30.60;37.90;;;;;;5064584;28;20446;-56
2023/05/07 09:54:34;;;;;;;2.87;2.53;;;30.90;37.40;;;;;;5062555;28;20565;-57
2023/05/07 09:57:02;;;;;;;2.60;2.30;;;31.20;36.80;;;;;;5060125;28;20864;-56
2023/05/07 09:59:29;;;;;;;2.50;2.30;;;31.30;36.00;;;;;;5057938;28;20546;-56
2023/05/07 10:01:58;;;;;;;3.10;2.67;;;31.10;35.80;;;;;;5065605;28;20524;-55
2023/05/07 10:04:25;;;;;;;2.97;2.77;;;30.90;36.30;;;;;;5066908;28;20811;-56
2023/05/07 10:06:51;;;;;;;4.43;3.20;;;30.90;36.30;;;;;;5065301;28;20446;-56
2023/05/07 10:09:18;;;;;;;4.23;2.77;;;31.00;36.20;;;;;;5063924;28;20465;-56
2023/05/07 10:11:44;;;;;;;2.93;2.47;;;31.00;36.40;;;;;;5062172;28;20203;-56
2023/05/07 10:14:10;;;;;;;2.30;2.20;;;30.90;36.60;;;;;;5064652;28;20884;-56
2023/05/07 10:16:37;;;;;;;1.93;1.83;;;30.90;36.70;;;;;;5065519;28;20466;-56
2023/05/07 10:19:06;;;;;;;2.50;2.30;;;30.90;36.30;;;;;;5068983;28;20457;-56
2023/05/07 10:21:44;;;;;;;3.30;2.60;;;31.00;36.60;;;;;;5070786;28;21125;-56
2023/05/07 10:24:16;;;;;;;2.60;2.40;;;31.10;36.60;;;;;;5068578;28;20512;-56
2023/05/07 10:26:49;;;;;;;2.50;2.30;;;31.20;36.40;;;;;;5063534;28;20445;-57
2023/05/07 10:29:24;;;;;;;2.43;2.13;;;31.50;36.90;;;;;;5070292;28;20482;-56
2023/05/07 10:32:12;;;;;;;2.70;2.50;;;31.70;35.90;;;;;;5069025;28;20553;-56
2023/05/07 10:34:43;;;;;;;3.20;3.00;;;31.60;35.10;;;;;;5059846;28;20490;-57
2023/05/07 10:37:10;;;;;;;4.27;2.97;;;31.70;34.60;;;;;;5068658;28;20445;-56
2023/05/07 10:39:36;;;;;;;3.63;2.00;;;31.70;34.70;;;;;;5066329;28;20446;-57
2023/05/07 10:42:14;;;;;;;3.00;2.20;;;31.80;34.30;;;;;;5071425;28;20446;-56
2023/05/07 10:44:40;;;;;;;2.10;2.00;;;31.70;34.00;;;;;;5066031;28;20525;-57
2023/05/07 10:47:11;;;;;;;3.90;2.00;;;31.90;35.80;;;;;;5061447;28;20524;-57
2023/05/07 10:50:06;;;;;;;5.60;2.27;;;32.10;34.40;;;;;;5070035;28;20458;-57
2023/05/07 10:52:31;;;;;;;2.63;2.43;;;32.30;34.00;;;;;;5060846;28;20450;-56
2023/05/07 10:55:17;;;;;;;3.03;1.93;;;32.30;33.50;;;;;;5064409;28;20489;-56
2023/05/07 10:57:43;;;;;;;3.00;2.77;;;32.40;33.10;;;;;;5066837;28;20188;-56
2023/05/07 11:00:29;;;;;;;2.60;2.40;;;32.10;33.00;;;;;;5070216;28;20472;-57
2023/05/07 11:03:01;;;;;;;2.57;2.37;;;32.10;33.70;;;;;;5060953;28;20199;-57
2023/05/07 11:05:31;;;;;;;2.43;2.00;;;32.00;32.50;;;;;;5061949;28;20450;-57
2023/05/07 11:08:01;;;;;;;2.73;2.53;;;32.00;32.90;;;;;;5065429;28;20536;-57
2023/05/07 11:10:53;;;;;;;2.37;1.90;;;31.90;33.10;;;;;;5065503;28;20446;-57
2023/05/07 11:13:41;;;;;;;3.03;2.80;;;32.20;32.60;;;;;;5067410;28;20449;-57
2023/05/07 11:16:27;;;;;;;3.00;2.80;;;32.30;32.10;;;;;;5062063;28;20485;-56
2023/05/07 11:18:54;;;;;;;2.33;2.13;;;32.10;32.60;;;;;;5062585;28;20449;-56
2023/05/07 11:21:35;;;;;;;3.47;2.30;;;31.90;32.60;;;;;;5063224;28;20495;-56
2023/05/07 11:24:02;;;;;;;5.20;2.00;;;32.00;33.40;;;;;;5070842;28;20438;-56
2023/05/07 11:26:31;;;;;;;2.53;2.33;;;32.10;32.70;;;;;;5068408;28;20459;-56
2023/05/07 11:28:57;;;;;;;2.50;2.30;;;32.20;32.90;;;;;;5061567;28;20535;-56
2023/05/07 11:31:28;;;;;;;2.93;2.07;;;32.30;32.50;;;;;;5062605;28;20952;-56
2023/05/07 11:33:54;;;;;;;1.97;1.80;;;32.30;33.10;;;;;;5062394;28;20430;-56
2023/05/07 11:36:23;;;;;;;2.10;2.00;;;32.40;31.80;;;;;;5063257;28;20485;-57
2023/05/07 11:38:48;;;;;;;4.03;2.40;;;32.30;32.80;;;;;;5070640;28;20434;-54
2023/05/07 11:41:17;;;;;;;2.23;2.03;;;32.30;32.10;;;;;;5069181;28;20443;-54
2023/05/07 11:44:03;;;;;;;2.60;2.40;;;32.00;32.20;;;;;;5062889;28;20849;-56
2023/05/07 11:46:28;;;;;;;2.10;2.00;;;31.40;32.90;;;;;;5059404;28;20463;-56
2023/05/07 11:48:55;;;;;;;2.40;2.20;;;31.50;32.90;;;;;;5072138;28;20438;-56
2023/05/07 11:51:23;;;;;;;2.47;2.30;;;31.50;33.00;;;;;;5066970;28;20233;-56
2023/05/07 11:53:50;;;;;;;2.37;2.17;;;31.20;33.00;;;;;;5061931;28;21027;-57
2023/05/07 11:56:18;;;;;;;2.30;1.87;;;31.20;33.40;;;;;;5063157;28;20516;-56
2023/05/07 11:58:45;;;;;;;2.53;2.10;;;31.10;33.80;;;;;;5064596;28;20957;-54
2023/05/07 12:01:12;;;;;;;2.13;2.00;;;31.10;34.30;;;;;;5066745;28;20457;-57
2023/05/07 12:03:42;;;;;;;2.70;2.30;;;30.50;34.90;;;;;;5070487;28;20473;-57
2023/05/07 12:06:08;;;;;;;2.43;2.17;;;29.70;36.80;;;;;;5064461;28;20557;-55
2023/05/07 12:08:37;;;;;;;3.73;1.90;;;29.00;37.70;;;;;;5068748;28;20446;-57
2023/05/07 12:11:06;;;;;;;4.43;2.53;;;28.90;39.00;;;;;;5065740;28;20438;-56
2023/05/07 12:13:32;;;;;;;2.63;2.07;;;28.90;38.80;;;;;;5062793;28;20450;-56
2023/05/07 12:15:58;;;;;;;2.50;2.30;;;28.70;38.30;;;;;;5065286;28;20489;-57
2023/05/07 12:18:24;;;;;;;2.70;2.20;;;28.60;38.70;;;;;;5067950;28;20265;-56
2023/05/07 12:20:50;;;;;;;2.20;2.10;;;28.90;38.30;;;;;;5065106;28;20603;-56
2023/05/07 12:23:16;;;;;;;2.33;2.10;;;29.10;38.40;;;;;;5056683;28;20439;-55
2023/05/07 12:25:46;;;;;;;2.50;2.30;;;29.30;37.70;;;;;;5065951;28;20932;-56
2023/05/07 12:28:19;;;;;;;2.60;2.27;;;29.60;36.90;;;;;;5059742;28;20214;-56
2023/05/07 12:30:47;;;;;;;2.70;2.27;;;29.70;36.20;;;;;;5058331;28;20441;-57
2023/05/07 12:33:16;;;;;;;3.97;2.40;;;29.70;36.40;;;;;;5067864;28;20453;-56
2023/05/07 12:35:43;;;;;;;2.07;1.80;;;29.80;35.90;;;;;;5057697;28;20577;-57
2023/05/07 12:38:13;;;;;;;2.60;2.40;;;29.70;35.80;;;;;;5061125;28;20446;-57
2023/05/07 12:40:45;;;;;;;2.87;2.60;;;29.40;35.70;;;;;;5061052;28;20442;-56
2023/05/07 12:43:27;;;;;;;2.23;1.97;;;29.20;36.10;;;;;;5057035;28;20536;-56
2023/05/07 12:45:55;;;;;;;2.60;2.40;;;29.30;36.50;;;;;;5063180;28;20470;-56
2023/05/07 12:48:22;;;;;;;1.90;1.80;;;29.40;36.40;;;;;;5067733;28;20464;-56